Terminal Aerodrome Forecast
Issued by NWS Dodge City, KS

Home | Current Version | Previous Version | Text Only | Print | Product List | Glossary On
Versions: 1 2 3 4 5 6 7 8 9 10 11 12 13 14 15 16 17 18 19 20 21 22 23 24 25 26 27
000
FTUS43 KDDC 230542
TAFDDC
TAF
KDDC 230542Z 2306/2406 30013G20KT P6SM FEW200
     FM231300 33018G26KT P6SM OVC040
     FM231600 33024G34KT P6SM OVC025
     FM232000 35028G38KT 5SM -SN BR BKN012 OVC025
     FM240100 34018G28KT P6SM OVC030=

USA.gov is the U.S. government's official web portal to all federal, state and local government web resources and services.